Time;durP1;ratioP1;P1;durP2;ratioP2;P2;SDS_P1;SDS_P2;PMS_P1;PMS_P2;Temp;Humidity;BMP_temperature;BMP_pressure;BME280_temperature;BME280_humidity;BME280_pressure;Samples;Min_cycle;Max_cycle;Signal;HPM_P1;HPM_P2
2022/08/14 00:02:02;;;;;;;1.42;0.50;;;22.40;90.10;;;;;;4903302;29;20542;-86
2022/08/14 00:04:33;;;;;;;0.40;0.40;;;22.30;90.30;;;;;;4901779;29;20403;-84
2022/08/14 00:06:59;;;;;;;0.77;0.40;;;22.20;90.70;;;;;;4901286;29;20047;-85
2022/08/14 00:09:24;;;;;;;0.40;0.40;;;22.10;91.00;;;;;;4892208;29;20052;-85
2022/08/14 00:11:50;;;;;;;0.38;0.38;;;22.00;90.90;;;;;;4912263;29;20084;-85
2022/08/14 00:14:16;;;;;;;0.68;0.68;;;22.00;91.10;;;;;;4904102;29;20494;-84
2022/08/14 00:16:42;;;;;;;0.43;0.28;;;21.90;90.90;;;;;;4901865;29;20052;-84
2022/08/14 00:19:08;;;;;;;0.73;0.70;;;21.80;91.40;;;;;;4905386;29;20044;-84
2022/08/14 00:21:34;;;;;;;0.47;0.47;;;21.70;91.50;;;;;;4891488;29;20387;-85
2022/08/14 00:24:00;;;;;;;0.50;0.50;;;21.70;91.70;;;;;;4914716;29;20149;-88
2022/08/14 00:26:25;;;;;;;0.25;0.25;;;21.60;91.70;;;;;;4916125;29;20059;-85
2022/08/14 00:28:53;;;;;;;0.50;0.45;;;21.50;91.80;;;;;;4886914;29;20544;-88
2022/08/14 00:31:19;;;;;;;0.40;0.40;;;21.60;91.90;;;;;;4916597;29;20099;-85
2022/08/14 00:33:45;;;;;;;0.50;0.50;;;21.50;92.20;;;;;;4886607;29;20059;-84
2022/08/14 00:36:11;;;;;;;0.68;0.60;;;21.50;92.40;;;;;;4912668;29;20036;-84
2022/08/14 00:38:37;;;;;;;0.47;0.47;;;21.40;92.50;;;;;;4901387;29;20100;-84
2022/08/14 00:41:05;;;;;;;0.30;0.30;;;21.40;92.70;;;;;;4911365;29;20135;-86
2022/08/14 00:43:33;;;;;;;0.20;0.20;;;21.40;92.70;;;;;;4903076;29;20071;-84
2022/08/14 00:46:07;;;;;;;0.40;0.40;;;21.40;92.40;;;;;;4903177;29;20052;-89
2022/08/14 00:48:33;;;;;;;0.50;0.50;;;21.40;92.90;;;;;;4918615;29;20056;-84
2022/08/14 00:50:59;;;;;;;0.40;0.40;;;21.40;92.80;;;;;;4903141;29;20379;-89
2022/08/14 00:53:25;;;;;;;0.65;0.60;;;21.50;92.60;;;;;;4905569;29;20040;-86
2022/08/14 00:55:54;;;;;;;0.40;0.40;;;21.50;93.10;;;;;;4899899;29;20111;-86
2022/08/14 00:58:29;;;;;;;0.52;0.40;;;21.50;92.80;;;;;;4902600;29;20059;-85
2022/08/14 01:00:56;;;;;;;0.57;0.50;;;21.50;93.40;;;;;;4906503;29;20051;-86
2022/08/14 01:03:23;;;;;;;0.43;0.43;;;21.40;93.20;;;;;;4889715;29;20099;-84
2022/08/14 01:05:50;;;;;;;0.77;0.65;;;21.40;93.30;;;;;;4913824;29;20068;-86
2022/08/14 01:08:22;;;;;;;0.85;0.50;;;21.40;93.30;;;;;;4905656;29;20071;-84
2022/08/14 01:10:52;;;;;;;0.40;0.32;;;21.30;93.80;;;;;;4884610;29;20055;-84
2022/08/14 01:13:22;;;;;;;0.30;0.22;;;21.30;93.60;;;;;;4886276;29;20048;-84
2022/08/14 01:15:51;;;;;;;0.40;0.40;;;21.30;93.80;;;;;;4912569;29;20138;-85
2022/08/14 01:21:07;;;;;;;0.70;0.30;;;20.20;93.70;;;;;;4899664;29;20064;-85
2022/08/14 01:23:35;;;;;;;0.63;0.30;;;21.10;94.20;;;;;;4904491;29;20048;-84
2022/08/14 01:26:02;;;;;;;0.63;0.63;;;21.00;94.40;;;;;;4900867;29;20040;-84
2022/08/14 01:28:30;;;;;;;1.25;0.68;;;20.40;94.30;;;;;;4900843;29;20083;-88
2022/08/14 01:30:58;;;;;;;0.90;0.40;;;21.00;94.60;;;;;;4916357;29;20060;-85
2022/08/14 01:33:28;;;;;;;0.50;0.50;;;20.90;94.60;;;;;;4910970;29;20127;-84
2022/08/14 01:36:01;;;;;;;0.57;0.40;;;20.90;95.20;;;;;;4906013;29;20127;-85
2022/08/14 01:38:33;;;;;;;0.45;0.45;;;20.80;95.20;;;;;;4898253;29;20052;-84
2022/08/14 01:41:07;;;;;;;0.65;0.60;;;20.80;95.10;;;;;;4912067;29;20104;-85
2022/08/14 01:43:43;;;;;;;0.85;0.70;;;20.80;95.50;;;;;;4911191;29;20158;-85
2022/08/14 01:46:10;;;;;;;0.50;0.50;;;20.70;95.60;;;;;;4912508;29;20047;-84
2022/08/14 01:48:37;;;;;;;1.15;0.63;;;20.70;95.60;;;;;;4912624;29;20056;-84
2022/08/14 01:51:05;;;;;;;0.47;0.47;;;20.70;95.90;;;;;;4905583;29;20052;-84
2022/08/14 01:53:31;;;;;;;0.95;0.60;;;20.60;95.80;;;;;;4903280;29;20107;-84
2022/08/14 01:56:04;;;;;;;1.00;0.80;;;20.60;96.20;;;;;;4900850;29;20056;-84
2022/08/14 01:58:30;;;;;;;0.43;0.40;;;20.60;96.30;;;;;;4908319;29;20108;-85
2022/08/14 02:00:57;;;;;;;0.80;0.57;;;20.50;96.30;;;;;;4902375;29;20048;-84
2022/08/14 02:03:33;;;;;;;0.68;0.60;;;20.50;96.20;;;;;;4901197;29;20130;-85
2022/08/14 02:05:59;;;;;;;0.70;0.70;;;20.40;96.50;;;;;;4913431;29;20055;-84
2022/08/14 02:08:29;;;;;;;0.35;0.35;;;20.50;96.20;;;;;;4886847;29;20116;-84
2022/08/14 02:13:42;;;;;;;0.57;0.57;;;20.40;97.20;;;;;;4923103;29;20048;-84
2022/08/14 02:16:10;;;;;;;0.70;0.70;;;20.40;97.20;;;;;;4911510;29;20074;-85
2022/08/14 02:18:36;;;;;;;0.50;0.50;;;20.40;97.10;;;;;;4908331;29;20157;-85
2022/08/14 02:21:03;;;;;;;0.38;0.32;;;20.40;97.30;;;;;;4898347;29;20467;-85
2022/08/14 02:23:31;;;;;;;0.85;0.30;;;20.40;97.40;;;;;;4902984;29;20494;-86
2022/08/14 02:25:58;;;;;;;0.50;0.50;;;20.40;97.60;;;;;;4892956;29;20395;-84
2022/08/14 02:28:29;;;;;;;0.55;0.55;;;20.30;97.70;;;;;;4914807;29;20079;-87
2022/08/14 02:30:55;;;;;;;0.40;0.40;;;20.30;97.70;;;;;;4917293;29;20051;-85
2022/08/14 02:33:22;;;;;;;;;;;20.30;97.90;;;;;;4905636;29;20050;-84
2022/08/14 02:35:48;;;;;;;0.55;0.55;;;20.20;98.50;;;;;;4904085;29;20569;-84
2022/08/14 02:38:14;;;;;;;0.50;0.50;;;20.20;98.40;;;;;;4916653;29;20131;-90
2022/08/14 02:40:39;;;;;;;0.57;0.57;;;20.20;98.20;;;;;;4912395;29;20135;-84
2022/08/14 02:43:05;;;;;;;0.60;0.60;;;20.20;98.20;;;;;;4912002;29;20048;-84
2022/08/14 02:45:32;;;;;;;0.70;0.50;;;20.20;98.60;;;;;;4911664;29;20048;-84
2022/08/14 02:48:02;;;;;;;0.77;0.50;;;20.20;98.80;;;;;;4905056;29;20505;-84
2022/08/14 02:50:28;;;;;;;1.27;0.77;;;20.20;98.50;;;;;;4917143;29;20501;-84
2022/08/14 02:52:54;;;;;;;0.60;0.57;;;20.20;98.70;;;;;;4919327;29;20131;-84
2022/08/14 02:55:20;;;;;;;1.15;0.70;;;20.20;98.60;;;;;;4893370;29;20467;-87
2022/08/14 02:57:50;;;;;;;0.55;0.47;;;20.20;98.40;;;;;;4915675;29;20056;-85
2022/08/14 03:00:17;;;;;;;0.47;0.47;;;20.10;98.50;;;;;;4906547;29;20055;-88
2022/08/14 03:02:42;;;;;;;0.73;0.50;;;20.10;98.50;;;;;;4909470;29;20053;-84
2022/08/14 03:05:10;;;;;;;1.20;0.55;;;20.10;99.20;;;;;;4884941;29;20119;-84
2022/08/14 03:07:36;;;;;;;0.22;0.22;;;20.10;99.30;;;;;;4900948;29;20040;-84
2022/08/14 03:10:02;;;;;;;1.13;0.63;;;20.10;99.10;;;;;;4915721;29;20067;-85
2022/08/14 03:12:28;;;;;;;1.08;0.60;;;20.10;98.80;;;;;;4906546;29;20119;-84
2022/08/14 03:14:54;;;;;;;0.50;0.50;;;20.10;99.00;;;;;;4918846;29;20050;-84
2022/08/14 03:17:19;;;;;;;0.98;0.60;;;20.10;99.60;;;;;;4909493;29;20048;-89
2022/08/14 03:19:45;;;;;;;0.80;0.60;;;20.10;99.60;;;;;;4905838;29;20502;-84
2022/08/14 03:22:12;;;;;;;0.60;0.30;;;20.10;99.50;;;;;;4922094;29;20122;-84
2022/08/14 03:24:37;;;;;;;0.70;0.57;;;20.10;98.90;;;;;;4906068;29;20103;-84
2022/08/14 03:27:04;;;;;;;0.43;0.40;;;20.10;99.40;;;;;;4889379;29;20060;-84
2022/08/14 03:29:30;;;;;;;0.90;0.43;;;20.10;99.60;;;;;;4904317;29;20127;-85
2022/08/14 03:31:58;;;;;;;0.50;0.50;;;20.10;99.60;;;;;;4907206;29;20562;-84
2022/08/14 03:34:26;;;;;;;1.00;0.60;;;20.00;99.30;;;;;;4910575;29;21454;-85
2022/08/14 03:36:54;;;;;;;0.35;0.30;;;20.00;99.40;;;;;;4896390;29;20047;-84
2022/08/14 03:39:21;;;;;;;0.55;0.50;;;20.00;99.20;;;;;;4912266;29;20056;-84
2022/08/14 03:41:48;;;;;;;0.93;0.57;;;19.90;99.00;;;;;;4912654;29;20133;-85
2022/08/14 03:44:14;;;;;;;0.43;0.43;;;19.90;99.80;;;;;;4899856;29;20075;-84
2022/08/14 03:46:41;;;;;;;0.88;0.38;;;19.90;99.90;;;;;;4904978;29;20479;-85
2022/08/14 03:49:08;;;;;;;0.60;0.60;;;19.90;99.90;;;;;;4916077;29;20052;-84
2022/08/14 03:51:35;;;;;;;0.88;0.65;;;20.00;99.90;;;;;;4915732;29;20048;-85
2022/08/14 03:54:04;;;;;;;0.95;0.70;;;20.00;99.90;;;;;;4903851;29;20052;-84
2022/08/14 03:56:30;;;;;;;0.60;0.60;;;19.80;99.90;;;;;;4914836;29;20063;-84
2022/08/14 03:59:10;;;;;;;0.52;0.52;;;20.00;99.90;;;;;;4907718;29;20491;-85
2022/08/14 04:01:40;;;;;;;0.32;0.32;;;20.00;99.90;;;;;;4911262;29;20505;-84
2022/08/14 04:04:07;;;;;;;0.55;0.55;;;20.10;99.70;;;;;;4901545;29;20104;-87
2022/08/14 04:06:36;;;;;;;0.65;0.50;;;20.00;99.90;;;;;;4913691;29;20048;-84
2022/08/14 04:09:06;;;;;;;0.50;0.50;;;20.10;99.90;;;;;;4904793;29;20052;-85
2022/08/14 04:11:33;;;;;;;0.80;0.50;;;20.00;99.60;;;;;;4909372;29;20044;-84
2022/08/14 04:14:00;;;;;;;0.40;0.40;;;20.00;99.70;;;;;;4915301;29;20048;-84
2022/08/14 04:16:25;;;;;;;1.48;0.65;;;20.00;99.90;;;;;;4902126;29;20136;-85
2022/08/14 04:18:54;;;;;;;0.57;0.40;;;20.00;99.90;;;;;;4900634;29;20072;-85
2022/08/14 04:21:23;;;;;;;0.43;0.43;;;20.00;99.90;;;;;;4915150;29;20126;-84
2022/08/14 04:23:53;;;;;;;0.40;0.32;;;20.00;99.90;;;;;;4915486;29;20044;-84
2022/08/14 04:26:21;;;;;;;0.88;0.77;;;19.90;99.90;;;;;;4894034;29;20486;-84
2022/08/14 04:28:48;;;;;;;0.88;0.63;;;19.90;99.90;;;;;;4886916;29;20052;-84
2022/08/14 04:31:15;;;;;;;0.70;0.70;;;19.90;99.90;;;;;;4900388;29;20060;-86
2022/08/14 04:33:41;;;;;;;0.50;0.50;;;19.80;99.90;;;;;;4912099;29;20076;-84
2022/08/14 04:36:07;;;;;;;1.02;0.50;;;19.80;99.90;;;;;;4916055;29;20048;-84
2022/08/14 04:44:01;;;;;;;0.95;0.80;;;19.80;99.90;;;;;;4904536;29;20059;-86
2022/08/14 04:46:27;;;;;;;0.60;0.47;;;19.70;99.90;;;;;;4917684;29;20391;-85
2022/08/14 04:48:54;;;;;;;0.68;0.50;;;19.80;99.90;;;;;;4900341;29;20059;-84
2022/08/14 04:51:26;;;;;;;0.52;0.52;;;19.80;99.90;;;;;;4911793;29;20079;-84
2022/08/14 04:53:53;;;;;;;1.13;0.50;;;19.70;99.90;;;;;;4914750;29;20055;-84
2022/08/14 04:56:22;;;;;;;1.23;0.90;;;19.70;99.90;;;;;;4903341;29;20379;-84
2022/08/14 04:58:49;;;;;;;0.52;0.40;;;19.80;99.90;;;;;;4896746;29;20044;-84
2022/08/14 05:01:16;;;;;;;0.60;0.60;;;19.70;99.90;;;;;;4903327;29;20130;-85
2022/08/14 05:03:43;;;;;;;0.55;0.52;;;19.80;99.90;;;;;;4913314;29;20040;-84
2022/08/14 05:06:10;;;;;;;0.70;0.52;;;19.70;99.90;;;;;;4906044;29;20122;-85
2022/08/14 05:08:37;;;;;;;0.60;0.60;;;19.70;99.90;;;;;;4906650;29;20127;-88
2022/08/14 05:11:05;;;;;;;0.63;0.40;;;19.80;99.90;;;;;;4907409;29;20132;-85
2022/08/14 05:13:33;;;;;;;1.10;0.68;;;19.70;99.90;;;;;;4901600;29;20051;-84
2022/08/14 05:16:00;;;;;;;0.88;0.50;;;19.70;99.90;;;;;;4906302;29;20051;-84
2022/08/14 05:18:35;;;;;;;0.75;0.60;;;19.80;99.90;;;;;;4911593;29;20052;-84
2022/08/14 05:21:04;;;;;;;0.90;0.57;;;19.80;99.90;;;;;;4906663;29;20126;-83
2022/08/14 05:23:33;;;;;;;0.50;0.35;;;19.80;99.90;;;;;;4911743;29;20123;-84
2022/08/14 05:26:02;;;;;;;0.75;0.55;;;19.90;99.90;;;;;;4913461;29;20062;-84
2022/08/14 05:28:31;;;;;;;0.70;0.43;;;19.90;99.90;;;;;;4889963;29;20414;-85
2022/08/14 05:31:01;;;;;;;0.80;0.60;;;20.00;99.90;;;;;;4915321;29;20229;-85
2022/08/14 05:33:28;;;;;;;0.40;0.40;;;20.00;99.90;;;;;;4907618;29;20130;-84
2022/08/14 05:36:02;;;;;;;0.80;0.68;;;20.10;99.90;;;;;;4910032;29;20081;-84
2022/08/14 05:38:32;;;;;;;0.70;0.68;;;20.20;99.90;;;;;;4909279;29;20048;-85
2022/08/14 05:41:06;;;;;;;0.70;0.57;;;20.20;99.90;;;;;;4906501;29;20051;-84
2022/08/14 05:43:32;;;;;;;0.63;0.50;;;20.40;99.90;;;;;;4911531;29;20048;-84
2022/08/14 05:45:59;;;;;;;0.77;0.73;;;20.50;99.90;;;;;;4913333;29;20051;-84
2022/08/14 05:48:26;;;;;;;0.52;0.50;;;20.60;99.90;;;;;;4915541;29;20780;-84
2022/08/14 05:50:53;;;;;;;0.60;0.32;;;20.80;99.90;;;;;;4899408;29;20052;-83
2022/08/14 05:53:24;;;;;;;0.65;0.57;;;20.90;99.90;;;;;;4912734;29;20055;-83
2022/08/14 05:55:50;;;;;;;0.55;0.50;;;21.10;99.90;;;;;;4911154;29;20491;-87
2022/08/14 05:58:16;;;;;;;0.95;0.70;;;21.30;99.90;;;;;;4900984;29;20044;-84
2022/08/14 06:00:43;;;;;;;0.82;0.52;;;21.50;99.90;;;;;;4915798;29;20052;-86
2022/08/14 06:03:13;;;;;;;1.75;0.60;;;21.60;99.90;;;;;;4918185;29;20052;-84
2022/08/14 06:05:40;;;;;;;1.45;0.75;;;21.80;99.90;;;;;;4916541;29;20048;-86
2022/08/14 06:08:17;;;;;;;0.85;0.63;;;21.90;99.90;;;;;;4916946;29;20059;-84
2022/08/14 06:10:43;;;;;;;2.10;1.02;;;22.00;99.90;;;;;;4906270;29;20068;-88
2022/08/14 06:13:09;;;;;;;0.95;0.70;;;22.10;99.90;;;;;;4908176;29;20047;-84
2022/08/14 06:15:35;;;;;;;1.13;0.60;;;22.20;99.90;;;;;;4914526;29;20486;-85
2022/08/14 06:18:01;;;;;;;1.23;0.60;;;22.30;99.90;;;;;;4917301;29;20048;-85
2022/08/14 06:20:27;;;;;;;0.90;0.60;;;22.30;99.90;;;;;;4885650;29;20107;-85
2022/08/14 06:22:53;;;;;;;0.70;0.70;;;22.40;99.90;;;;;;4917461;29;20046;-86
2022/08/14 06:25:19;;;;;;;0.77;0.45;;;22.50;99.90;;;;;;4890443;29;20690;-86
2022/08/14 06:27:47;;;;;;;0.82;0.68;;;22.60;99.60;;;;;;4912100;29;20048;-87
2022/08/14 06:30:16;;;;;;;0.77;0.55;;;22.60;99.50;;;;;;4917403;29;20052;-89
2022/08/14 06:32:41;;;;;;;0.65;0.65;;;22.70;99.70;;;;;;4906027;29;20040;-91
2022/08/14 06:35:08;;;;;;;0.95;0.60;;;22.90;99.40;;;;;;4906330;29;20036;-91
2022/08/14 06:37:42;;;;;;;0.55;0.55;;;22.90;99.40;;;;;;4904080;29;20099;-91
2022/08/14 06:40:09;;;;;;;0.68;0.65;;;23.00;99.30;;;;;;4916365;29;20048;-85
2022/08/14 06:42:35;;;;;;;0.45;0.45;;;23.20;99.40;;;;;;4884893;29;20051;-84
2022/08/14 06:45:01;;;;;;;0.57;0.57;;;23.30;99.30;;;;;;4902872;29;20058;-87
2022/08/14 06:47:27;;;;;;;1.08;0.60;;;23.40;98.90;;;;;;4912538;29;20048;-87
2022/08/14 06:49:53;;;;;;;0.90;0.40;;;23.50;98.70;;;;;;4899467;29;20127;-87
2022/08/14 06:52:18;;;;;;;0.65;0.52;;;23.60;98.70;;;;;;4901474;29;20051;-86
2022/08/14 06:54:44;;;;;;;0.93;0.85;;;23.70;98.70;;;;;;4903100;29;20043;-87
2022/08/14 06:57:10;;;;;;;0.90;0.90;;;23.80;98.40;;;;;;4885950;29;21550;-87
2022/08/14 06:59:39;;;;;;;;;;;23.80;98.40;;;;;;4904494;29;20086;-86
2022/08/14 07:07:40;;;;;;;0.95;0.50;;;24.10;98.00;;;;;;4920418;29;20135;-87
2022/08/14 07:10:08;;;;;;;1.42;0.70;;;24.30;98.00;;;;;;4901798;29;20052;-86
2022/08/14 07:12:34;;;;;;;0.43;0.40;;;24.30;97.70;;;;;;4904148;29;20192;-86
2022/08/14 07:15:00;;;;;;;0.63;0.55;;;24.40;97.60;;;;;;4907729;29;20048;-91
2022/08/14 07:17:26;;;;;;;0.40;0.40;;;24.50;97.70;;;;;;4908222;29;20044;-91
2022/08/14 07:19:52;;;;;;;2.47;0.60;;;24.60;97.60;;;;;;4900955;29;20107;-89
2022/08/14 07:22:18;;;;;;;0.75;0.63;;;24.60;97.40;;;;;;4905867;29;20044;-94
2022/08/14 07:24:43;;;;;;;1.23;0.60;;;24.60;97.30;;;;;;4910697;29;20048;-90
2022/08/14 07:27:09;;;;;;;0.75;0.75;;;24.70;97.40;;;;;;4902973;29;20050;-91
2022/08/14 07:29:41;;;;;;;0.63;0.60;;;24.80;97.40;;;;;;4902711;29;20139;-92
2022/08/14 07:32:10;;;;;;;0.65;0.50;;;25.00;97.20;;;;;;4916661;29;20059;-90
2022/08/14 07:34:38;;;;;;;0.50;0.50;;;25.10;97.40;;;;;;4902517;29;20040;-88
2022/08/14 07:37:04;;;;;;;2.05;0.50;;;25.20;97.00;;;;;;4900277;29;20051;-87
2022/08/14 07:39:30;;;;;;;0.40;0.40;;;25.30;96.80;;;;;;4909591;29;20447;-91
2022/08/14 07:41:56;;;;;;;0.75;0.75;;;25.40;96.80;;;;;;4912911;29;20051;-90
2022/08/14 07:44:21;;;;;;;;;;;25.50;96.70;;;;;;4909488;29;20383;-92
2022/08/14 07:46:47;;;;;;;0.32;0.30;;;25.60;97.20;;;;;;4876915;29;19945;-86
2022/08/14 07:49:13;;;;;;;0.50;0.50;;;25.70;96.60;;;;;;4914542;29;20119;-87
2022/08/14 07:51:39;;;;;;;0.60;0.60;;;25.80;96.40;;;;;;4918317;29;20060;-91
2022/08/14 07:54:05;;;;;;;;;;;25.90;96.20;;;;;;4897074;29;20051;-92
2022/08/14 07:56:31;;;;;;;0.60;0.43;;;26.00;96.10;;;;;;4890584;29;19934;-91
2022/08/14 07:58:57;;;;;;;;;;;26.20;96.00;;;;;;4886590;29;20052;-88
2022/08/14 08:01:25;;;;;;;0.40;0.40;;;26.40;95.70;;;;;;4916994;29;20436;-91
2022/08/14 08:03:51;;;;;;;0.40;0.40;;;26.50;95.60;;;;;;4903051;29;20040;-92
2022/08/14 08:06:19;;;;;;;0.55;0.32;;;26.60;95.50;;;;;;4903781;29;20106;-91
2022/08/14 08:08:45;;;;;;;;;;;26.60;95.40;;;;;;4920339;29;20435;-91
2022/08/14 08:11:12;;;;;;;0.95;0.75;;;26.70;94.80;;;;;;4919727;29;19945;-91
2022/08/14 08:13:41;;;;;;;0.73;0.60;;;26.70;95.30;;;;;;4919852;29;20490;-92
2022/08/14 08:16:07;;;;;;;0.50;0.50;;;26.80;94.80;;;;;;4919462;29;20103;-92
2022/08/14 08:18:33;;;;;;;0.65;0.60;;;26.80;95.00;;;;;;4920336;29;20044;-92
2022/08/14 08:21:00;;;;;;;0.85;0.50;;;26.80;94.90;;;;;;4919425;29;20079;-92
2022/08/14 08:23:28;;;;;;;0.40;0.40;;;26.90;94.80;;;;;;4903729;29;20478;-92
2022/08/14 08:25:57;;;;;;;0.50;0.50;;;26.90;94.80;;;;;;4921379;29;20502;-91
2022/08/14 08:28:26;;;;;;;0.73;0.47;;;26.90;94.50;;;;;;4900095;29;20063;-91
2022/08/14 08:30:59;;;;;;;0.80;0.52;;;26.90;94.70;;;;;;4885601;29;20048;-91
2022/08/14 08:33:29;;;;;;;0.63;0.60;;;26.90;94.40;;;;;;4900109;29;20044;-93
2022/08/14 08:36:05;;;;;;;0.30;0.30;;;27.10;94.50;;;;;;4900569;29;20477;-92
2022/08/14 08:38:31;;;;;;;0.82;0.82;;;27.00;93.70;;;;;;4900834;29;20445;-91
2022/08/14 08:40:58;;;;;;;0.60;0.60;;;27.10;94.40;;;;;;4885150;29;20142;-91
2022/08/14 08:43:34;;;;;;;0.68;0.60;;;27.20;94.40;;;;;;4884541;29;20498;-92
2022/08/14 08:46:09;;;;;;;0.20;0.20;;;27.30;94.30;;;;;;4885170;29;20048;-93
2022/08/14 08:49:02;;;;;;;0.55;0.55;;;27.50;93.90;;;;;;4900386;29;20056;-92
2022/08/14 08:51:30;;;;;;;0.70;0.57;;;27.60;93.10;;;;;;4913347;29;20063;-93
2022/08/14 08:54:06;;;;;;;0.40;0.40;;;27.70;93.90;;;;;;4884713;29;20048;-93
2022/08/14 08:56:52;;;;;;;0.47;0.47;;;27.70;93.20;;;;;;4881644;29;20055;-93
2022/08/14 08:59:22;;;;;;;0.38;0.38;;;27.80;92.20;;;;;;4865278;29;20056;-93
2022/08/14 09:01:52;;;;;;;0.40;0.40;;;27.80;93.10;;;;;;4866124;29;20139;-92
2022/08/14 09:04:19;;;;;;;0.40;0.40;;;27.80;92.60;;;;;;4881034;29;20507;-93
2022/08/14 09:06:49;;;;;;;0.75;0.50;;;27.90;92.80;;;;;;4866193;29;20139;-93
2022/08/14 09:09:22;;;;;;;0.85;0.60;;;27.90;92.20;;;;;;4865771;29;20400;-93
2022/08/14 09:11:49;;;;;;;0.40;0.40;;;27.90;92.30;;;;;;4865578;29;20099;-92
2022/08/14 09:14:15;;;;;;;0.60;0.50;;;27.90;92.30;;;;;;4865491;29;20049;-91
2022/08/14 09:16:41;;;;;;;;;;;27.80;92.20;;;;;;4884520;29;20048;-93
2022/08/14 09:19:08;;;;;;;0.50;0.50;;;27.80;91.50;;;;;;4870324;29;19989;-93
2022/08/14 09:21:37;;;;;;;0.35;0.30;;;27.80;92.00;;;;;;4881185;29;20451;-92
2022/08/14 09:24:04;;;;;;;0.55;0.55;;;27.90;92.10;;;;;;4866117;29;20088;-93
2022/08/14 09:26:30;;;;;;;0.50;0.50;;;27.90;91.90;;;;;;4880727;29;20410;-93
2022/08/14 09:28:56;;;;;;;0.88;0.60;;;27.90;91.70;;;;;;4865591;29;20056;-93
2022/08/14 09:31:27;;;;;;;0.38;0.38;;;27.90;91.60;;;;;;4880684;29;20111;-93
2022/08/14 09:34:30;;;;;;;0.73;0.50;;;28.00;91.40;;;;;;4880541;29;20107;-93
2022/08/14 09:37:22;;;;;;;0.38;0.38;;;28.00;91.00;;;;;;4866390;29;20075;-92
2022/08/14 09:40:18;;;;;;;0.22;0.22;;;28.00;91.00;;;;;;4881013;29;20104;-94
2022/08/14 09:43:11;;;;;;;0.40;0.30;;;28.10;91.10;;;;;;4880989;29;20044;-94
2022/08/14 09:45:47;;;;;;;0.30;0.30;;;28.20;90.50;;;;;;4872678;29;20044;-93
2022/08/14 09:48:19;;;;;;;0.40;0.40;;;28.20;90.80;;;;;;4899113;29;20439;-93
2022/08/14 09:50:45;;;;;;;0.60;0.40;;;28.30;90.50;;;;;;4899810;29;20104;-93
2022/08/14 09:53:14;;;;;;;0.77;0.57;;;28.30;91.00;;;;;;4883878;29;20360;-93
2022/08/14 09:55:40;;;;;;;0.38;0.30;;;28.20;90.60;;;;;;4884119;29;20052;-93
2022/08/14 09:58:13;;;;;;;0.43;0.40;;;28.30;90.80;;;;;;4883963;29;20486;-93
2022/08/14 10:00:42;;;;;;;0.47;0.47;;;28.20;90.60;;;;;;4899745;29;20490;-93
2022/08/14 10:03:08;;;;;;;0.47;0.47;;;28.30;90.50;;;;;;4899472;29;20505;-94
2022/08/14 10:05:35;;;;;;;0.30;0.30;;;28.40;90.50;;;;;;4899094;29;20052;-93
2022/08/14 10:08:02;;;;;;;0.40;0.40;;;28.50;90.40;;;;;;4883987;29;20052;-94
2022/08/14 10:10:37;;;;;;;1.02;0.85;;;28.60;90.30;;;;;;4867985;29;20554;-93
2022/08/14 10:13:05;;;;;;;0.40;0.40;;;28.60;90.10;;;;;;4883987;29;20063;-93
2022/08/14 10:15:36;;;;;;;0.30;0.30;;;28.60;90.20;;;;;;4897073;29;20045;-93
2022/08/14 10:18:14;;;;;;;0.38;0.30;;;28.70;90.20;;;;;;4876167;29;20056;-93
2022/08/14 10:20:59;;;;;;;0.45;0.38;;;28.70;89.60;;;;;;4865240;29;20135;-93
2022/08/14 10:23:56;;;;;;;0.52;0.43;;;28.70;88.80;;;;;;4864843;29;20136;-93
2022/08/14 10:26:23;;;;;;;1.00;0.47;;;28.90;88.10;;;;;;4880323;29;20041;-93
2022/08/14 10:28:51;;;;;;;0.45;0.30;;;28.80;88.90;;;;;;4849918;29;20060;-93
2022/08/14 10:31:28;;;;;;;0.47;0.32;;;28.60;89.20;;;;;;4865465;29;20068;-93
2022/08/14 10:34:04;;;;;;;0.40;0.28;;;28.60;89.20;;;;;;4882863;29;20139;-92
2022/08/14 10:36:35;;;;;;;0.25;0.25;;;28.70;88.60;;;;;;4865137;29;20049;-93
2022/08/14 10:39:05;;;;;;;0.50;0.50;;;28.70;88.90;;;;;;4880543;29;20045;-93
2022/08/14 10:41:40;;;;;;;0.90;0.52;;;28.80;88.60;;;;;;4880374;29;20049;-93
2022/08/14 10:44:13;;;;;;;0.50;0.40;;;28.80;88.90;;;;;;4850714;29;20519;-92
2022/08/14 10:46:51;;;;;;;0.30;0.30;;;29.00;89.00;;;;;;4883790;29;20055;-93
2022/08/14 10:49:26;;;;;;;0.65;0.40;;;29.10;87.20;;;;;;4883902;29;20088;-94
2022/08/14 10:52:07;;;;;;;0.88;0.57;;;29.20;87.90;;;;;;4868249;29;20072;-93
2022/08/14 10:54:37;;;;;;;0.63;0.52;;;29.30;87.40;;;;;;4899114;29;20048;-93
2022/08/14 10:57:23;;;;;;;0.40;0.40;;;29.20;87.60;;;;;;4902583;29;20059;-93
2022/08/14 10:59:52;;;;;;;0.57;0.57;;;29.20;84.50;;;;;;4886871;29;20083;-93
2022/08/14 11:02:35;;;;;;;0.73;0.73;;;29.20;87.20;;;;;;4902457;29;20383;-93
2022/08/14 11:05:14;;;;;;;0.73;0.50;;;29.10;85.80;;;;;;4902497;29;20075;-93
2022/08/14 11:08:00;;;;;;;0.32;0.30;;;29.10;86.40;;;;;;4886357;29;20054;-93
2022/08/14 11:10:54;;;;;;;0.53;0.53;;;29.10;85.20;;;;;;4917092;29;20060;-94
2022/08/14 11:13:29;;;;;;;0.60;0.60;;;29.20;85.70;;;;;;4902242;29;20292;-94
2022/08/14 11:15:59;;;;;;;0.40;0.40;;;29.30;85.80;;;;;;4886661;29;20055;-92
2022/08/14 11:18:26;;;;;;;0.50;0.50;;;29.40;85.70;;;;;;4885193;29;20513;-93
2022/08/14 11:20:58;;;;;;;0.93;0.45;;;29.50;86.10;;;;;;4887329;29;20112;-94
2022/08/14 11:23:29;;;;;;;0.73;0.57;;;29.60;85.20;;;;;;4887534;29;20070;-90
2022/08/14 11:25:56;;;;;;;0.40;0.32;;;29.70;85.20;;;;;;4902744;29;20520;-94
2022/08/14 11:28:25;;;;;;;0.40;0.40;;;29.80;85.60;;;;;;4870943;29;20067;-93
2022/08/14 11:30:55;;;;;;;0.43;0.43;;;29.80;85.40;;;;;;4886250;29;20044;-93
2022/08/14 11:33:23;;;;;;;0.55;0.50;;;30.00;85.70;;;;;;4901769;29;20056;-93
2022/08/14 11:35:50;;;;;;;0.70;0.57;;;30.10;85.30;;;;;;4901257;29;20139;-92
2022/08/14 11:38:18;;;;;;;0.40;0.40;;;30.10;84.90;;;;;;4886536;29;20056;-93
2022/08/14 11:40:45;;;;;;;0.80;0.50;;;30.20;83.90;;;;;;4901356;29;20048;-94
2022/08/14 11:43:11;;;;;;;1.02;0.50;;;30.20;84.20;;;;;;4901740;29;20135;-94
2022/08/14 11:45:38;;;;;;;0.85;0.73;;;30.30;84.30;;;;;;4885621;29;20091;-93
2022/08/14 11:48:15;;;;;;;0.65;0.43;;;30.30;84.00;;;;;;4916247;29;20059;-93
2022/08/14 11:50:41;;;;;;;0.38;0.38;;;30.30;82.70;;;;;;4909576;29;20036;-93
2022/08/14 11:53:20;;;;;;;0.63;0.50;;;30.40;84.10;;;;;;4867757;29;20418;-92
2022/08/14 11:55:46;;;;;;;0.75;0.40;;;30.50;82.30;;;;;;4882313;29;20127;-92
2022/08/14 11:58:15;;;;;;;0.20;0.20;;;30.60;83.20;;;;;;4867555;29;20052;-94
2022/08/14 12:00:53;;;;;;;0.35;0.35;;;30.70;83.20;;;;;;4882948;29;20091;-94
2022/08/14 12:03:19;;;;;;;0.68;0.68;;;30.70;81.30;;;;;;4867488;29;20056;-93
2022/08/14 12:05:45;;;;;;;0.85;0.85;;;30.60;82.20;;;;;;4882021;29;20499;-92
2022/08/14 12:08:11;;;;;;;0.55;0.50;;;30.50;82.10;;;;;;4867030;29;20048;-92
2022/08/14 12:10:40;;;;;;;0.93;0.63;;;30.60;83.00;;;;;;4851520;29;20055;-92
2022/08/14 12:13:20;;;;;;;0.77;0.47;;;30.60;82.20;;;;;;4867497;29;20175;-92
2022/08/14 12:15:56;;;;;;;0.60;0.60;;;30.80;80.50;;;;;;4866386;29;20087;-91
2022/08/14 12:18:31;;;;;;;0.60;0.55;;;31.00;80.40;;;;;;4890665;29;20079;-92
2022/08/14 12:20:57;;;;;;;0.40;0.40;;;31.10;80.80;;;;;;4885328;29;20450;-91
2022/08/14 12:23:24;;;;;;;1.40;0.35;;;31.30;81.10;;;;;;4869631;29;20147;-92
2022/08/14 12:26:04;;;;;;;0.45;0.45;;;31.30;80.40;;;;;;4884962;29;20091;-93
2022/08/14 12:28:30;;;;;;;0.50;0.50;;;31.40;78.00;;;;;;4900932;29;20111;-93
2022/08/14 12:30:55;;;;;;;0.50;0.47;;;31.40;79.90;;;;;;4900032;29;20048;-92
2022/08/14 12:33:31;;;;;;;0.82;0.60;;;31.30;78.80;;;;;;4900779;29;20063;-92
2022/08/14 12:36:08;;;;;;;0.63;0.40;;;31.30;78.90;;;;;;4884752;29;20079;-92
2022/08/14 12:38:42;;;;;;;0.43;0.35;;;31.30;78.60;;;;;;4884911;29;20478;-92
2022/08/14 12:41:22;;;;;;;0.50;0.30;;;31.40;78.30;;;;;;4885011;29;20118;-92
2022/08/14 12:43:56;;;;;;;0.60;0.43;;;31.40;77.40;;;;;;4884858;29;20044;-93
2022/08/14 12:46:36;;;;;;;0.38;0.38;;;31.50;78.90;;;;;;4900749;29;20063;-91
2022/08/14 12:49:28;;;;;;;0.47;0.47;;;31.60;77.70;;;;;;4900288;29;20538;-92
2022/08/14 12:51:59;;;;;;;0.68;0.55;;;31.70;76.90;;;;;;4897366;29;20458;-93
2022/08/14 12:54:25;;;;;;;0.50;0.50;;;31.70;78.40;;;;;;4885142;29;20084;-93
2022/08/14 12:57:02;;;;;;;0.20;0.13;;;31.70;78.00;;;;;;4868440;29;20112;-93
2022/08/14 12:59:32;;;;;;;0.40;0.40;;;31.70;75.10;;;;;;4900663;29;20130;-92
2022/08/14 13:02:00;;;;;;;0.40;0.40;;;31.80;77.00;;;;;;4884592;29;20582;-93
2022/08/14 13:04:30;;;;;;;0.80;0.57;;;31.70;76.90;;;;;;4884766;29;20052;-93
2022/08/14 13:07:06;;;;;;;0.80;0.40;;;31.80;77.60;;;;;;4884625;29;20059;-92
2022/08/14 13:09:32;;;;;;;0.35;0.32;;;31.80;75.90;;;;;;4915861;29;20498;-93
2022/08/14 13:12:02;;;;;;;0.40;0.40;;;31.80;77.00;;;;;;4884504;29;20107;-93
2022/08/14 13:14:32;;;;;;;0.50;0.50;;;31.70;76.00;;;;;;4900608;29;20047;-93
2022/08/14 13:17:01;;;;;;;0.43;0.40;;;31.60;77.20;;;;;;4897843;29;20242;-92